sensor_id;sensor_type;location;lat;lon;timestamp;pressure;altitude;pressure_sealevel;temperature;humidity
64053;BME280;50299;49.524;8.536;2023-03-23T00:02:25;99798.47;;;11.06;47.09
64053;BME280;50299;49.524;8.536;2023-03-23T00:04:50;99785.19;;;11.12;46.44
64053;BME280;50299;49.524;8.536;2023-03-23T00:07:16;99793.50;;;11.00;47.91
64053;BME280;50299;49.524;8.536;2023-03-23T00:09:49;99787.13;;;11.24;47.23
64053;BME280;50299;49.524;8.536;2023-03-23T00:12:31;99782.88;;;11.14;47.40
64053;BME280;50299;49.524;8.536;2023-03-23T00:15:04;99781.44;;;11.32;47.01
64053;BME280;50299;49.524;8.536;2023-03-23T00:17:32;99769.63;;;11.20;47.38
64053;BME280;50299;49.524;8.536;2023-03-23T00:19:58;99765.81;;;11.12;46.69
64053;BME280;50299;49.524;8.536;2023-03-23T00:22:30;99773.44;;;11.15;48.30
64053;BME280;50299;49.524;8.536;2023-03-23T00:24:56;99764.66;;;11.13;47.36
64053;BME280;50299;49.524;8.536;2023-03-23T00:27:22;99771.31;;;11.24;46.59
64053;BME280;50299;49.524;8.536;2023-03-23T00:29:49;99764.31;;;11.27;47.08
64053;BME280;50299;49.524;8.536;2023-03-23T00:32:20;99769.75;;;11.39;45.81
64053;BME280;50299;49.524;8.536;2023-03-23T00:34:52;99772.75;;;11.46;46.94
64053;BME280;50299;49.524;8.536;2023-03-23T00:37:18;99769.63;;;11.20;48.09
64053;BME280;50299;49.524;8.536;2023-03-23T00:39:43;99770.16;;;11.25;46.86
64053;BME280;50299;49.524;8.536;2023-03-23T00:42:10;99765.78;;;11.24;46.10
64053;BME280;50299;49.524;8.536;2023-03-23T00:44:35;99761.44;;;11.23;47.41
64053;BME280;50299;49.524;8.536;2023-03-23T00:47:02;99765.75;;;10.96;47.55
64053;BME280;50299;49.524;8.536;2023-03-23T00:49:28;99763.31;;;11.07;45.99
64053;BME280;50299;49.524;8.536;2023-03-23T00:51:55;99764.03;;;10.92;46.19
64053;BME280;50299;49.524;8.536;2023-03-23T00:54:22;99760.91;;;10.93;47.46
64053;BME280;50299;49.524;8.536;2023-03-23T00:56:48;99773.47;;;11.03;47.06
64053;BME280;50299;49.524;8.536;2023-03-23T00:59:14;99772.16;;;11.13;47.27
64053;BME280;50299;49.524;8.536;2023-03-23T01:01:39;99767.28;;;11.22;47.17
64053;BME280;50299;49.524;8.536;2023-03-23T01:04:06;99765.78;;;11.24;46.42
64053;BME280;50299;49.524;8.536;2023-03-23T01:06:34;99756.34;;;11.25;47.39
64053;BME280;50299;49.524;8.536;2023-03-23T01:09:01;99760.16;;;11.21;47.23
64053;BME280;50299;49.524;8.536;2023-03-23T01:11:29;99745.25;;;11.25;47.48
64053;BME280;50299;49.524;8.536;2023-03-23T01:13:55;99749.59;;;11.39;47.69
64053;BME280;50299;49.524;8.536;2023-03-23T01:16:21;99751.22;;;11.40;48.20
64053;BME280;50299;49.524;8.536;2023-03-23T01:18:47;99758.16;;;11.33;47.63
64053;BME280;50299;49.524;8.536;2023-03-23T01:21:17;99745.53;;;11.20;46.63
64053;BME280;50299;49.524;8.536;2023-03-23T01:23:44;99746.69;;;11.19;48.25
64053;BME280;50299;49.524;8.536;2023-03-23T01:26:16;99741.47;;;11.18;48.85
64053;BME280;50299;49.524;8.536;2023-03-23T01:28:43;99739.50;;;11.18;47.18
64053;BME280;50299;49.524;8.536;2023-03-23T01:31:12;99734.38;;;11.04;49.22
64053;BME280;50299;49.524;8.536;2023-03-23T01:33:39;99725.72;;;11.06;48.21
64053;BME280;50299;49.524;8.536;2023-03-23T01:36:07;99718.28;;;10.94;49.48
64053;BME280;50299;49.524;8.536;2023-03-23T01:38:34;99720.13;;;10.90;49.89
64053;BME280;50299;49.524;8.536;2023-03-23T01:41:01;99723.69;;;10.91;49.66
64053;BME280;50299;49.524;8.536;2023-03-23T01:43:26;99727.53;;;10.86;49.70
64053;BME280;50299;49.524;8.536;2023-03-23T01:45:52;99720.72;;;10.71;48.34
64053;BME280;50299;49.524;8.536;2023-03-23T01:53:28;99708.28;;;10.77;47.04
64053;BME280;50299;49.524;8.536;2023-03-23T01:55:56;99706.53;;;10.85;47.30
64053;BME280;50299;49.524;8.536;2023-03-23T01:58:26;99690.09;;;10.76;48.13
64053;BME280;50299;49.524;8.536;2023-03-23T02:00:53;99697.00;;;10.82;48.86
64053;BME280;50299;49.524;8.536;2023-03-23T02:03:19;99692.59;;;10.81;47.37
64053;BME280;50299;49.524;8.536;2023-03-23T02:05:50;99693.44;;;10.82;46.89
64053;BME280;50299;49.524;8.536;2023-03-23T02:08:19;99699.97;;;10.77;47.22
64053;BME280;50299;49.524;8.536;2023-03-23T02:10:44;99700.34;;;10.76;48.27
64053;BME280;50299;49.524;8.536;2023-03-23T02:13:11;99711.06;;;10.53;48.73
64053;BME280;50299;49.524;8.536;2023-03-23T02:18:40;99723.72;;;10.54;47.94
64053;BME280;50299;49.524;8.536;2023-03-23T02:24:09;99701.25;;;10.68;48.42
64053;BME280;50299;49.524;8.536;2023-03-23T02:29:17;99698.50;;;10.55;48.38
64053;BME280;50299;49.524;8.536;2023-03-23T02:32:35;99692.94;;;10.68;47.71
64053;BME280;50299;49.524;8.536;2023-03-23T02:35:01;99694.66;;;10.72;47.80
64053;BME280;50299;49.524;8.536;2023-03-23T02:37:39;99692.97;;;10.80;48.24
64053;BME280;50299;49.524;8.536;2023-03-23T02:40:30;99674.75;;;10.79;47.43
64053;BME280;50299;49.524;8.536;2023-03-23T02:42:59;99672.00;;;10.79;48.32
64053;BME280;50299;49.524;8.536;2023-03-23T02:45:27;99672.41;;;10.93;48.70
64053;BME280;50299;49.524;8.536;2023-03-23T02:47:54;99670.41;;;11.06;46.31
64053;BME280;50299;49.524;8.536;2023-03-23T02:50:23;99664.19;;;11.09;46.85
64053;BME280;50299;49.524;8.536;2023-03-23T02:52:52;99662.53;;;11.20;47.46
64053;BME280;50299;49.524;8.536;2023-03-23T02:55:20;99660.13;;;11.19;47.65
64053;BME280;50299;49.524;8.536;2023-03-23T02:57:50;99661.84;;;11.23;48.86
64053;BME280;50299;49.524;8.536;2023-03-23T03:00:36;99655.53;;;11.10;48.76
64053;BME280;50299;49.524;8.536;2023-03-23T03:03:03;99660.72;;;11.12;48.80
64053;BME280;50299;49.524;8.536;2023-03-23T03:06:05;99665.44;;;11.12;47.51
64053;BME280;50299;49.524;8.536;2023-03-23T03:08:55;99656.28;;;10.95;46.92
64053;BME280;50299;49.524;8.536;2023-03-23T03:11:25;99659.78;;;10.80;47.58
64053;BME280;50299;49.524;8.536;2023-03-23T03:14:00;99644.34;;;10.79;47.23
64053;BME280;50299;49.524;8.536;2023-03-23T03:16:50;99651.50;;;10.80;48.41
64053;BME280;50299;49.524;8.536;2023-03-23T03:19:30;99645.97;;;10.55;49.20
64053;BME280;50299;49.524;8.536;2023-03-23T03:21:58;99646.66;;;10.65;47.75
64053;BME280;50299;49.524;8.536;2023-03-23T03:24:26;99656.47;;;10.62;48.90
64053;BME280;50299;49.524;8.536;2023-03-23T03:26:54;99651.63;;;10.59;49.38
64053;BME280;50299;49.524;8.536;2023-03-23T03:29:27;99650.47;;;10.60;48.13
64053;BME280;50299;49.524;8.536;2023-03-23T03:31:55;99649.34;;;10.61;47.73
64053;BME280;50299;49.524;8.536;2023-03-23T03:34:22;99651.38;;;10.64;48.50
64053;BME280;50299;49.524;8.536;2023-03-23T03:36:49;99648.28;;;10.66;49.72
64053;BME280;50299;49.524;8.536;2023-03-23T03:39:17;99654.94;;;10.65;48.69
64053;BME280;50299;49.524;8.536;2023-03-23T03:41:45;99653.34;;;10.64;49.03
64053;BME280;50299;49.524;8.536;2023-03-23T03:44:11;99661.16;;;10.86;48.34
64053;BME280;50299;49.524;8.536;2023-03-23T03:46:36;99660.34;;;10.85;47.95
64053;BME280;50299;49.524;8.536;2023-03-23T03:49:04;99660.69;;;10.84;47.88
64053;BME280;50299;49.524;8.536;2023-03-23T03:51:30;99659.13;;;10.58;48.08
64053;BME280;50299;49.524;8.536;2023-03-23T03:53:56;99652.44;;;10.59;47.72
64053;BME280;50299;49.524;8.536;2023-03-23T03:56:22;99657.13;;;10.71;48.44
64053;BME280;50299;49.524;8.536;2023-03-23T03:58:49;99656.56;;;10.66;47.87
64053;BME280;50299;49.524;8.536;2023-03-23T04:01:16;99648.72;;;10.80;48.68
64053;BME280;50299;49.524;8.536;2023-03-23T04:03:43;99659.47;;;10.57;48.08
64053;BME280;50299;49.524;8.536;2023-03-23T04:06:09;99654.38;;;10.71;47.77
64053;BME280;50299;49.524;8.536;2023-03-23T04:08:36;99661.84;;;10.71;47.47
64053;BME280;50299;49.524;8.536;2023-03-23T04:11:07;99657.94;;;10.59;47.74
64053;BME280;50299;49.524;8.536;2023-03-23T04:13:33;99651.28;;;10.48;48.45
64053;BME280;50299;49.524;8.536;2023-03-23T04:15:58;99654.28;;;10.55;47.99
64053;BME280;50299;49.524;8.536;2023-03-23T04:18:23;99661.78;;;10.43;49.75
64053;BME280;50299;49.524;8.536;2023-03-23T04:20:50;99660.63;;;10.44;49.18
64053;BME280;50299;49.524;8.536;2023-03-23T04:23:17;99659.13;;;10.46;48.46
64053;BME280;50299;49.524;8.536;2023-03-23T04:25:49;99663.09;;;10.73;47.87
64053;BME280;50299;49.524;8.536;2023-03-23T04:28:16;99655.88;;;10.56;49.99
64053;BME280;50299;49.524;8.536;2023-03-23T04:30:45;99669.16;;;10.39;50.46
64053;BME280;50299;49.524;8.536;2023-03-23T04:33:14;99675.22;;;10.56;49.55
64053;BME280;50299;49.524;8.536;2023-03-23T04:35:41;99680.69;;;10.28;50.14
64053;BME280;50299;49.524;8.536;2023-03-23T04:38:08;99683.66;;;10.23;50.97
64053;BME280;50299;49.524;8.536;2023-03-23T04:40:39;99690.09;;;10.15;51.70
64053;BME280;50299;49.524;8.536;2023-03-23T04:43:09;99681.25;;;10.34;51.45
64053;BME280;50299;49.524;8.536;2023-03-23T04:45:38;99688.13;;;10.16;52.98
64053;BME280;50299;49.524;8.536;2023-03-23T04:48:07;99683.31;;;10.25;52.85
64053;BME280;50299;49.524;8.536;2023-03-23T04:50:33;99679.06;;;10.15;55.29
64053;BME280;50299;49.524;8.536;2023-03-23T04:53:01;99696.78;;;10.02;53.22
64053;BME280;50299;49.524;8.536;2023-03-23T04:55:34;99689.97;;;9.87;55.52
64053;BME280;50299;49.524;8.536;2023-03-23T04:58:04;99696.44;;;9.91;56.85
64053;BME280;50299;49.524;8.536;2023-03-23T05:00:31;99699.53;;;10.02;55.65
64053;BME280;50299;49.524;8.536;2023-03-23T05:02:57;99701.38;;;9.98;54.98
64053;BME280;50299;49.524;8.536;2023-03-23T05:05:24;99713.09;;;10.07;55.03
64053;BME280;50299;49.524;8.536;2023-03-23T05:07:51;99711.16;;;10.07;55.91
64053;BME280;50299;49.524;8.536;2023-03-23T05:10:17;99692.75;;;10.11;55.71
64053;BME280;50299;49.524;8.536;2023-03-23T05:12:43;99703.34;;;10.09;55.01
64053;BME280;50299;49.524;8.536;2023-03-23T05:15:10;99703.78;;;10.11;55.64
64053;BME280;50299;49.524;8.536;2023-03-23T05:17:37;99711.06;;;10.16;54.36
64053;BME280;50299;49.524;8.536;2023-03-23T05:20:04;99716.59;;;10.16;54.41
64053;BME280;50299;49.524;8.536;2023-03-23T05:22:33;99715.97;;;9.98;55.19
64053;BME280;50299;49.524;8.536;2023-03-23T05:25:00;99713.78;;;9.92;55.17
64053;BME280;50299;49.524;8.536;2023-03-23T05:27:28;99713.84;;;10.28;55.80
64053;BME280;50299;49.524;8.536;2023-03-23T05:29:58;99714.28;;;10.18;53.57
64053;BME280;50299;49.524;8.536;2023-03-23T05:32:24;99722.66;;;10.09;54.21
64053;BME280;50299;49.524;8.536;2023-03-23T05:34:58;99716.47;;;10.13;55.97
64053;BME280;50299;49.524;8.536;2023-03-23T05:37:27;99718.09;;;10.26;54.35
64053;BME280;50299;49.524;8.536;2023-03-23T05:40:03;99712.78;;;10.21;53.31
64053;BME280;50299;49.524;8.536;2023-03-23T05:42:35;99713.47;;;10.18;53.44
64053;BME280;50299;49.524;8.536;2023-03-23T05:45:09;99709.56;;;10.31;53.22
64053;BME280;50299;49.524;8.536;2023-03-23T05:47:37;99721.06;;;10.21;54.16
64053;BME280;50299;49.524;8.536;2023-03-23T05:50:03;99706.22;;;10.50;52.81
64053;BME280;50299;49.524;8.536;2023-03-23T05:52:28;99722.13;;;10.41;52.90
64053;BME280;50299;49.524;8.536;2023-03-23T05:54:54;99726.50;;;10.29;51.68
64053;BME280;50299;49.524;8.536;2023-03-23T05:57:19;99731.31;;;10.20;52.12
64053;BME280;50299;49.524;8.536;2023-03-23T05:59:48;99728.56;;;10.45;51.66
64053;BME280;50299;49.524;8.536;2023-03-23T06:02:13;99743.50;;;10.44;51.11
64053;BME280;50299;49.524;8.536;2023-03-23T06:04:42;99749.75;;;10.53;52.26
64053;BME280;50299;49.524;8.536;2023-03-23T06:07:08;99746.16;;;10.77;51.67
64053;BME280;50299;49.524;8.536;2023-03-23T06:09:39;99749.03;;;10.56;51.88
64053;BME280;50299;49.524;8.536;2023-03-23T06:12:05;99747.53;;;10.71;51.74
64053;BME280;50299;49.524;8.536;2023-03-23T06:14:31;99760.56;;;10.70;50.24
64053;BME280;50299;49.524;8.536;2023-03-23T06:16:57;99758.50;;;10.55;52.67
64053;BME280;50299;49.524;8.536;2023-03-23T06:19:22;99750.56;;;10.90;51.81
64053;BME280;50299;49.524;8.536;2023-03-23T06:21:48;99753.75;;;10.92;51.50
64053;BME280;50299;49.524;8.536;2023-03-23T06:24:14;99755.84;;;10.95;52.25
64053;BME280;50299;49.524;8.536;2023-03-23T06:26:39;99755.97;;;10.87;51.51
64053;BME280;50299;49.524;8.536;2023-03-23T06:29:06;99752.03;;;10.88;52.81
64053;BME280;50299;49.524;8.536;2023-03-23T06:31:43;99762.03;;;11.04;51.89
64053;BME280;50299;49.524;8.536;2023-03-23T06:34:10;99756.94;;;11.19;53.14
64053;BME280;50299;49.524;8.536;2023-03-23T06:36:37;99755.53;;;11.25;51.80
64053;BME280;50299;49.524;8.536;2023-03-23T06:39:04;99762.19;;;11.36;50.07
64053;BME280;50299;49.524;8.536;2023-03-23T06:41:31;99767.38;;;11.38;51.92
64053;BME280;50299;49.524;8.536;2023-03-23T06:43:58;99764.59;;;11.38;51.23
64053;BME280;50299;49.524;8.536;2023-03-23T06:46:27;99771.28;;;11.37;49.76
64053;BME280;50299;49.524;8.536;2023-03-23T06:48:54;99766.59;;;11.25;50.18
64053;BME280;50299;49.524;8.536;2023-03-23T06:51:20;99767.31;;;11.09;50.27
64053;BME280;50299;49.524;8.536;2023-03-23T06:53:46;99773.63;;;11.22;50.19
64053;BME280;50299;49.524;8.536;2023-03-23T06:56:12;99773.94;;;11.33;50.54
64053;BME280;50299;49.524;8.536;2023-03-23T06:58:38;99776.81;;;11.37;49.52
64053;BME280;50299;49.524;8.536;2023-03-23T07:01:05;99789.53;;;11.25;50.54
64053;BME280;50299;49.524;8.536;2023-03-23T07:03:31;99784.22;;;11.32;49.95
64053;BME280;50299;49.524;8.536;2023-03-23T07:05:57;99790.22;;;11.22;50.75
64053;BME280;50299;49.524;8.536;2023-03-23T07:08:22;99807.19;;;11.21;49.36
64053;BME280;50299;49.524;8.536;2023-03-23T07:10:51;99818.13;;;11.29;50.12
64053;BME280;50299;49.524;8.536;2023-03-23T07:13:18;99803.63;;;11.20;49.41
64053;BME280;50299;49.524;8.536;2023-03-23T07:15:43;99808.00;;;11.09;51.14
64053;BME280;50299;49.524;8.536;2023-03-23T07:18:09;99823.94;;;11.00;50.39
64053;BME280;50299;49.524;8.536;2023-03-23T07:20:34;99825.19;;;11.15;52.71
64053;BME280;50299;49.524;8.536;2023-03-23T07:23:01;99822.19;;;11.07;50.57
64053;BME280;50299;49.524;8.536;2023-03-23T07:25:27;99812.41;;;10.61;53.73
64053;BME280;50299;49.524;8.536;2023-03-23T07:27:52;99810.53;;;10.65;51.63
64053;BME280;50299;49.524;8.536;2023-03-23T07:30:17;99807.94;;;10.11;54.30
64053;BME280;50299;49.524;8.536;2023-03-23T07:32:43;99813.38;;;9.86;54.72
64053;BME280;50299;49.524;8.536;2023-03-23T07:35:09;99816.97;;;9.87;55.16
64053;BME280;50299;49.524;8.536;2023-03-23T07:37:35;99821.91;;;9.94;55.21
64053;BME280;50299;49.524;8.536;2023-03-23T07:40:01;99818.84;;;9.53;56.18
64053;BME280;50299;49.524;8.536;2023-03-23T07:42:43;99826.38;;;9.65;57.44
64053;BME280;50299;49.524;8.536;2023-03-23T07:45:10;99837.59;;;10.02;56.92
64053;BME280;50299;49.524;8.536;2023-03-23T07:47:37;99828.13;;;9.70;56.27
64053;BME280;50299;49.524;8.536;2023-03-23T07:50:03;99850.69;;;9.30;59.04
64053;BME280;50299;49.524;8.536;2023-03-23T07:52:28;99847.78;;;9.26;58.96
64053;BME280;50299;49.524;8.536;2023-03-23T07:54:55;99844.63;;;9.78;57.84
64053;BME280;50299;49.524;8.536;2023-03-23T07:57:20;99849.47;;;9.40;59.29
64053;BME280;50299;49.524;8.536;2023-03-23T07:59:46;99849.66;;;9.34;59.66
64053;BME280;50299;49.524;8.536;2023-03-23T08:02:11;99852.69;;;9.42;59.63
64053;BME280;50299;49.524;8.536;2023-03-23T08:04:39;99841.19;;;9.19;60.58
64053;BME280;50299;49.524;8.536;2023-03-23T08:07:05;99850.88;;;9.46;59.86
64053;BME280;50299;49.524;8.536;2023-03-23T08:09:31;99856.81;;;9.56;60.27
64053;BME280;50299;49.524;8.536;2023-03-23T08:11:56;99862.66;;;9.34;59.77
64053;BME280;50299;49.524;8.536;2023-03-23T08:14:23;99862.09;;;9.20;61.09
64053;BME280;50299;49.524;8.536;2023-03-23T08:16:51;99870.44;;;9.32;60.66
64053;BME280;50299;49.524;8.536;2023-03-23T08:19:17;99858.16;;;9.50;60.85
64053;BME280;50299;49.524;8.536;2023-03-23T08:21:42;99861.03;;;9.54;60.62
64053;BME280;50299;49.524;8.536;2023-03-23T08:24:08;99853.50;;;9.42;61.75
64053;BME280;50299;49.524;8.536;2023-03-23T08:26:33;99871.28;;;9.74;59.61
64053;BME280;50299;49.524;8.536;2023-03-23T08:28:59;99863.84;;;9.45;61.66
64053;BME280;50299;49.524;8.536;2023-03-23T08:31:25;99868.31;;;9.58;60.23
64053;BME280;50299;49.524;8.536;2023-03-23T08:33:50;99862.97;;;9.53;59.63
64053;BME280;50299;49.524;8.536;2023-03-23T08:36:17;99881.34;;;9.70;60.29
64053;BME280;50299;49.524;8.536;2023-03-23T08:38:43;99872.53;;;9.35;61.48
64053;BME280;50299;49.524;8.536;2023-03-23T08:41:09;99884.59;;;9.51;60.97
64053;BME280;50299;49.524;8.536;2023-03-23T08:43:35;99879.41;;;9.50;60.57
64053;BME280;50299;49.524;8.536;2023-03-23T08:46:01;99881.44;;;9.82;60.21
64053;BME280;50299;49.524;8.536;2023-03-23T08:48:32;99889.69;;;9.61;60.54
64053;BME280;50299;49.524;8.536;2023-03-23T08:51:01;99896.22;;;9.36;62.97
64053;BME280;50299;49.524;8.536;2023-03-23T08:53:27;99897.97;;;9.41;62.35
64053;BME280;50299;49.524;8.536;2023-03-23T08:55:55;99893.81;;;9.34;62.92
64053;BME280;50299;49.524;8.536;2023-03-23T08:58:21;99893.31;;;9.32;67.92
64053;BME280;50299;49.524;8.536;2023-03-23T09:00:48;99898.47;;;9.13;69.78
64053;BME280;50299;49.524;8.536;2023-03-23T09:03:13;99900.06;;;9.44;67.41
64053;BME280;50299;49.524;8.536;2023-03-23T09:05:38;99912.31;;;9.34;65.85
64053;BME280;50299;49.524;8.536;2023-03-23T09:08:08;99900.91;;;9.86;63.00
64053;BME280;50299;49.524;8.536;2023-03-23T09:10:33;99907.41;;;9.60;62.45
64053;BME280;50299;49.524;8.536;2023-03-23T09:12:59;99909.31;;;9.69;64.26
64053;BME280;50299;49.524;8.536;2023-03-23T09:15:24;99911.78;;;9.61;61.92
64053;BME280;50299;49.524;8.536;2023-03-23T09:17:51;99916.66;;;9.85;62.12
64053;BME280;50299;49.524;8.536;2023-03-23T09:20:20;99917.28;;;9.91;61.33
64053;BME280;50299;49.524;8.536;2023-03-23T09:22:48;99923.69;;;10.04;59.47
64053;BME280;50299;49.524;8.536;2023-03-23T09:25:25;99928.69;;;10.23;59.53
64053;BME280;50299;49.524;8.536;2023-03-23T09:27:54;99933.00;;;10.32;57.25
64053;BME280;50299;49.524;8.536;2023-03-23T09:30:23;99926.91;;;10.06;57.70
64053;BME280;50299;49.524;8.536;2023-03-23T09:32:49;99935.50;;;10.25;57.01
64053;BME280;50299;49.524;8.536;2023-03-23T09:35:15;99934.47;;;10.30;57.44
64053;BME280;50299;49.524;8.536;2023-03-23T09:37:43;99940.91;;;10.01;55.63
64053;BME280;50299;49.524;8.536;2023-03-23T09:40:16;99946.09;;;10.02;56.47
64053;BME280;50299;49.524;8.536;2023-03-23T09:50:46;99952.91;;;9.84;58.90
64053;BME280;50299;49.524;8.536;2023-03-23T09:53:28;99956.53;;;9.76;58.45
64053;BME280;50299;49.524;8.536;2023-03-23T09:56:01;99961.31;;;10.08;57.70
64053;BME280;50299;49.524;8.536;2023-03-23T09:58:35;99954.13;;;9.95;58.49
64053;BME280;50299;49.524;8.536;2023-03-23T10:01:07;99950.75;;;9.90;60.38
64053;BME280;50299;49.524;8.536;2023-03-23T10:03:43;99948.84;;;10.02;60.05
64053;BME280;50299;49.524;8.536;2023-03-23T10:06:11;99949.03;;;10.18;60.34
64053;BME280;50299;49.524;8.536;2023-03-23T10:08:43;99951.63;;;10.35;60.28
64053;BME280;50299;49.524;8.536;2023-03-23T10:14:19;99938.72;;;10.27;60.82
64053;BME280;50299;49.524;8.536;2023-03-23T10:17:00;99926.22;;;10.42;60.05
64053;BME280;50299;49.524;8.536;2023-03-23T10:19:49;99927.22;;;10.71;58.24
64053;BME280;50299;49.524;8.536;2023-03-23T10:22:24;99920.53;;;10.26;58.96
64053;BME280;50299;49.524;8.536;2023-03-23T10:25:02;99921.00;;;9.95;59.66
64053;BME280;50299;49.524;8.536;2023-03-23T10:30:17;99913.88;;;10.06;59.88
64053;BME280;50299;49.524;8.536;2023-03-23T10:35:32;99907.00;;;9.79;59.77
64053;BME280;50299;49.524;8.536;2023-03-23T10:38:03;99910.84;;;9.99;60.31
64053;BME280;50299;49.524;8.536;2023-03-23T10:40:30;99916.78;;;10.10;61.06
64053;BME280;50299;49.524;8.536;2023-03-23T10:42:57;99917.41;;;10.28;60.84
64053;BME280;50299;49.524;8.536;2023-03-23T10:45:26;99923.06;;;10.65;58.41
64053;BME280;50299;49.524;8.536;2023-03-23T10:50:38;99925.25;;;10.71;58.72
64053;BME280;50299;49.524;8.536;2023-03-23T10:53:27;99933.63;;;10.83;57.50
64053;BME280;50299;49.524;8.536;2023-03-23T10:55:55;99928.31;;;10.78;57.31
64053;BME280;50299;49.524;8.536;2023-03-23T10:58:27;99933.31;;;10.64;57.88
64053;BME280;50299;49.524;8.536;2023-03-23T11:00:55;99932.41;;;10.72;57.85
64053;BME280;50299;49.524;8.536;2023-03-23T11:03:28;99945.16;;;10.65;56.87
64053;BME280;50299;49.524;8.536;2023-03-23T11:05:59;99931.97;;;10.37;60.23
64053;BME280;50299;49.524;8.536;2023-03-23T11:08:32;99927.72;;;10.40;58.93
64053;BME280;50299;49.524;8.536;2023-03-23T11:13:40;99937.88;;;9.73;61.31
64053;BME280;50299;49.524;8.536;2023-03-23T11:16:09;99932.91;;;10.08;61.22
64053;BME280;50299;49.524;8.536;2023-03-23T11:18:38;99937.47;;;10.25;61.58
64053;BME280;50299;49.524;8.536;2023-03-23T11:21:05;99934.47;;;10.30;61.23
64053;BME280;50299;49.524;8.536;2023-03-23T11:23:37;99942.22;;;10.16;61.17
64053;BME280;50299;49.524;8.536;2023-03-23T11:26:29;99950.34;;;10.00;61.30
64053;BME280;50299;49.524;8.536;2023-03-23T11:31:33;99945.38;;;9.63;62.72
64053;BME280;50299;49.524;8.536;2023-03-23T11:34:13;99944.69;;;9.75;62.66
64053;BME280;50299;49.524;8.536;2023-03-23T11:36:43;99916.19;;;10.04;63.35
64053;BME280;50299;49.524;8.536;2023-03-23T11:39:20;99918.59;;;10.06;63.59
64053;BME280;50299;49.524;8.536;2023-03-23T11:41:47;99919.34;;;10.15;63.58
64053;BME280;50299;49.524;8.536;2023-03-23T11:44:13;99913.84;;;10.27;62.53
64053;BME280;50299;49.524;8.536;2023-03-23T11:50:03;99919.59;;;10.22;62.12
64053;BME280;50299;49.524;8.536;2023-03-23T11:55:19;99923.91;;;10.11;63.42
64053;BME280;50299;49.524;8.536;2023-03-23T11:57:44;99918.03;;;10.33;62.44
64053;BME280;50299;49.524;8.536;2023-03-23T12:00:15;99915.31;;;10.46;62.44
64053;BME280;50299;49.524;8.536;2023-03-23T12:06:05;99907.72;;;10.55;62.83
64053;BME280;50299;49.524;8.536;2023-03-23T12:12:08;99910.09;;;10.77;59.75
64053;BME280;50299;49.524;8.536;2023-03-23T12:14:56;99911.41;;;10.59;58.54
64053;BME280;50299;49.524;8.536;2023-03-23T12:20:32;99916.75;;;10.31;60.32
64053;BME280;50299;49.524;8.536;2023-03-23T12:23:23;99924.22;;;10.30;59.53
64053;BME280;50299;49.524;8.536;2023-03-23T12:31:24;99907.50;;;10.60;59.24
64053;BME280;50299;49.524;8.536;2023-03-23T12:34:20;99898.94;;;10.41;60.88
64053;BME280;50299;49.524;8.536;2023-03-23T12:40:01;99889.38;;;10.38;60.74
64053;BME280;50299;49.524;8.536;2023-03-23T12:42:39;99885.56;;;10.76;60.35
64053;BME280;50299;49.524;8.536;2023-03-23T12:45:49;99895.69;;;10.84;59.91
64053;BME280;50299;49.524;8.536;2023-03-23T12:48:23;99891.50;;;10.53;60.93
64053;BME280;50299;49.524;8.536;2023-03-23T12:51:07;99884.75;;;10.75;60.04
64053;BME280;50299;49.524;8.536;2023-03-23T12:53:42;99880.41;;;10.87;59.32
64053;BME280;50299;49.524;8.536;2023-03-23T12:56:40;99862.38;;;11.42;59.81
64053;BME280;50299;49.524;8.536;2023-03-23T12:59:22;99859.09;;;12.20;55.92
64053;BME280;50299;49.524;8.536;2023-03-23T13:01:54;99870.81;;;12.14;55.60
64053;BME280;50299;49.524;8.536;2023-03-23T13:04:31;99861.88;;;11.92;54.96
64053;BME280;50299;49.524;8.536;2023-03-23T13:07:05;99862.16;;;11.87;55.58
64053;BME280;50299;49.524;8.536;2023-03-23T13:12:23;99859.97;;;11.28;58.58
64053;BME280;50299;49.524;8.536;2023-03-23T13:14:59;99848.31;;;11.22;57.52
64053;BME280;50299;49.524;8.536;2023-03-23T13:26:00;99861.72;;;10.96;59.92
64053;BME280;50299;49.524;8.536;2023-03-23T13:28:29;99854.59;;;11.07;58.97
64053;BME280;50299;49.524;8.536;2023-03-23T13:33:28;99856.97;;;10.72;60.98
64053;BME280;50299;49.524;8.536;2023-03-23T13:35:54;99853.88;;;10.85;60.05
64053;BME280;50299;49.524;8.536;2023-03-23T13:38:27;99857.69;;;10.81;58.16
64053;BME280;50299;49.524;8.536;2023-03-23T13:40:54;99871.97;;;10.83;58.05
64053;BME280;50299;49.524;8.536;2023-03-23T13:43:31;99869.84;;;10.68;57.55
64053;BME280;50299;49.524;8.536;2023-03-23T13:49:04;99869.22;;;10.83;57.44
64053;BME280;50299;49.524;8.536;2023-03-23T13:56:48;99856.72;;;10.65;57.03
64053;BME280;50299;49.524;8.536;2023-03-23T13:59:30;99848.66;;;10.72;57.00
64053;BME280;50299;49.524;8.536;2023-03-23T14:05:07;99860.69;;;10.88;56.15
64053;BME280;50299;49.524;8.536;2023-03-23T14:10:18;99848.94;;;10.91;56.18
64053;BME280;50299;49.524;8.536;2023-03-23T14:12:45;99843.28;;;11.00;56.09
64053;BME280;50299;49.524;8.536;2023-03-23T14:15:15;99836.34;;;11.06;54.75
64053;BME280;50299;49.524;8.536;2023-03-23T14:17:42;99833.69;;;10.73;56.81
64053;BME280;50299;49.524;8.536;2023-03-23T14:20:27;99821.03;;;10.96;56.16
64053;BME280;50299;49.524;8.536;2023-03-23T14:22:55;99824.84;;;11.16;55.17
64053;BME280;50299;49.524;8.536;2023-03-23T14:25:22;99814.78;;;11.24;55.42
64053;BME280;50299;49.524;8.536;2023-03-23T14:27:51;99821.34;;;11.31;54.20
64053;BME280;50299;49.524;8.536;2023-03-23T14:30:20;99823.34;;;11.19;55.61
64053;BME280;50299;49.524;8.536;2023-03-23T14:32:46;99828.06;;;10.94;56.41
64053;BME280;50299;49.524;8.536;2023-03-23T14:35:36;99839.34;;;11.25;55.50
64053;BME280;50299;49.524;8.536;2023-03-23T14:38:04;99844.44;;;10.99;55.53
64053;BME280;50299;49.524;8.536;2023-03-23T14:40:31;99833.28;;;10.83;55.69
64053;BME280;50299;49.524;8.536;2023-03-23T14:42:57;99838.38;;;10.48;56.32
64053;BME280;50299;49.524;8.536;2023-03-23T14:45:26;99834.00;;;10.34;57.50
64053;BME280;50299;49.524;8.536;2023-03-23T14:48:00;99826.88;;;10.46;59.25